createdAt,value
2022-07-25T00:01:20.579Z,13.28
2022-07-25T00:03:47.941Z,13.28
2022-07-25T00:06:18.051Z,13.29
2022-07-25T00:08:44.820Z,13.30
2022-07-25T00:11:11.774Z,13.27
2022-07-25T00:13:38.581Z,13.17
2022-07-25T00:16:05.707Z,13.14
2022-07-25T00:18:32.475Z,13.12
2022-07-25T00:20:59.205Z,13.07
2022-07-25T00:23:25.918Z,13.05
2022-07-25T00:25:52.743Z,13.02
2022-07-25T00:28:19.579Z,12.98
2022-07-25T00:30:46.749Z,12.96
2022-07-25T00:33:13.649Z,12.88
2022-07-25T00:35:40.248Z,12.84
2022-07-25T00:38:06.858Z,12.76
2022-07-25T00:40:33.600Z,12.74
2022-07-25T00:43:00.645Z,12.73
2022-07-25T00:48:40.075Z,12.65
2022-07-25T00:51:07.738Z,12.62
2022-07-25T00:53:35.634Z,12.60
2022-07-25T00:56:02.402Z,12.57
2022-07-25T00:58:29.655Z,12.51
2022-07-25T01:00:56.675Z,12.48
2022-07-25T01:03:23.625Z,12.46
2022-07-25T01:05:53.991Z,12.49
2022-07-25T01:08:22.475Z,12.47
2022-07-25T01:10:49.536Z,12.44
2022-07-25T01:13:16.246Z,12.40
2022-07-25T01:15:43.316Z,12.37
2022-07-25T01:18:10.165Z,12.36
2022-07-25T01:20:36.808Z,12.26
2022-07-25T01:23:03.514Z,12.17
2022-07-25T01:25:30.130Z,12.12
2022-07-25T01:27:57.889Z,12.10
2022-07-25T01:30:29.478Z,12.04
2022-07-25T01:32:56.095Z,12.04
2022-07-25T01:35:22.793Z,12.02
2022-07-25T01:37:49.491Z,11.98
2022-07-25T01:40:16.341Z,11.89
2022-07-25T01:42:43.808Z,11.82
2022-07-25T01:45:12.339Z,11.74
2022-07-25T01:47:39.892Z,11.70
2022-07-25T01:50:07.156Z,11.62
2022-07-25T01:52:33.818Z,11.59
2022-07-25T01:55:00.529Z,11.59
2022-07-25T01:57:30.974Z,11.58
2022-07-25T01:59:58.327Z,11.65
2022-07-25T02:02:25.203Z,11.63
2022-07-25T02:04:51.971Z,11.64
2022-07-25T02:07:18.741Z,11.67
2022-07-25T02:09:45.389Z,11.63
2022-07-25T02:12:12.355Z,11.62
2022-07-25T02:14:39.019Z,11.61
2022-07-25T02:17:05.711Z,11.63
2022-07-25T02:19:32.894Z,11.63
2022-07-25T02:21:59.531Z,11.64
2022-07-25T02:24:26.227Z,11.61
2022-07-25T02:26:52.910Z,11.58
2022-07-25T02:29:21.835Z,11.51
2022-07-25T02:31:48.883Z,11.43
2022-07-25T02:34:15.826Z,11.38
2022-07-25T02:36:42.550Z,11.35
2022-07-25T02:39:09.148Z,11.27
2022-07-25T02:41:35.771Z,11.29
2022-07-25T02:44:02.396Z,11.24
2022-07-25T02:49:33.176Z,11.22
2022-07-25T02:51:59.875Z,11.23
2022-07-25T02:54:26.525Z,11.24
2022-07-25T02:56:53.123Z,11.29
2022-07-25T02:59:19.821Z,11.32
2022-07-25T03:01:46.469Z,11.35
2022-07-25T03:04:13.232Z,11.39
2022-07-25T03:06:42.933Z,11.38
2022-07-25T03:09:09.560Z,11.40
2022-07-25T03:11:36.259Z,11.39
2022-07-25T03:14:03.812Z,11.42
2022-07-25T03:16:30.763Z,11.44
2022-07-25T03:18:57.429Z,11.43
2022-07-25T03:21:24.136Z,11.43
2022-07-25T03:23:52.820Z,11.36
2022-07-25T03:26:20.380Z,11.24
2022-07-25T03:28:47.041Z,11.19
2022-07-25T03:31:13.680Z,11.12
2022-07-25T03:33:40.354Z,11.08
2022-07-25T03:36:07.441Z,11.05
2022-07-25T03:38:34.125Z,11.06
2022-07-25T03:41:00.771Z,11.10
2022-07-25T03:43:27.469Z,11.11
2022-07-25T03:45:54.189Z,11.11
2022-07-25T03:48:20.831Z,11.14
2022-07-25T03:50:47.592Z,11.21
2022-07-25T03:53:14.332Z,11.28
2022-07-25T03:55:41.019Z,11.37
2022-07-25T03:58:07.833Z,11.43
2022-07-25T04:00:34.421Z,11.48
2022-07-25T04:03:01.435Z,11.57
2022-07-25T04:05:28.077Z,11.64
2022-07-25T04:07:54.794Z,11.70
2022-07-25T04:10:21.759Z,11.81
2022-07-25T04:12:48.453Z,11.91
2022-07-25T04:15:15.369Z,12.03
2022-07-25T04:17:43.081Z,12.10
2022-07-25T04:20:10.826Z,12.22
2022-07-25T04:22:37.438Z,12.33
2022-07-25T04:25:05.040Z,12.45
2022-07-25T04:27:31.779Z,12.59
2022-07-25T04:29:59.548Z,12.73
2022-07-25T04:32:26.226Z,12.87
2022-07-25T04:34:54.990Z,13.01
2022-07-25T04:37:21.933Z,13.17
2022-07-25T04:39:48.764Z,13.36
2022-07-25T04:42:15.386Z,13.54
2022-07-25T04:44:42.075Z,13.74
2022-07-25T04:50:35.067Z,14.35
2022-07-25T04:53:04.957Z,14.74
2022-07-25T04:55:32.808Z,15.47
2022-07-25T04:58:02.512Z,16.47
2022-07-25T05:00:29.358Z,17.51
2022-07-25T05:02:56.041Z,18.65
2022-07-25T05:05:22.860Z,19.76
2022-07-25T05:07:50.745Z,20.92
2022-07-25T05:10:17.693Z,22.00
2022-07-25T05:12:44.559Z,22.97
2022-07-25T05:15:12.510Z,23.98
2022-07-25T05:17:39.362Z,24.87
2022-07-25T05:20:06.711Z,25.70
2022-07-25T05:22:33.300Z,26.36
2022-07-25T05:25:02.456Z,26.96
2022-07-25T05:27:29.169Z,27.66
2022-07-25T05:29:55.845Z,27.60
2022-07-25T05:32:22.468Z,28.43
2022-07-25T05:34:49.139Z,28.88
2022-07-25T05:37:16.439Z,29.46
2022-07-25T05:39:43.381Z,29.57
2022-07-25T05:42:09.949Z,29.77
2022-07-25T05:44:36.573Z,30.26
2022-07-25T05:47:03.299Z,30.49
2022-07-25T05:49:29.971Z,30.74
2022-07-25T05:51:56.703Z,30.89
2022-07-25T05:54:23.427Z,30.96
2022-07-25T05:56:50.052Z,30.96
2022-07-25T05:59:17.947Z,30.71
2022-07-25T06:01:45.389Z,30.99
2022-07-25T06:04:12.103Z,31.30
2022-07-25T06:06:38.714Z,30.90
2022-07-25T06:09:08.033Z,31.73
2022-07-25T06:11:34.933Z,32.16
2022-07-25T06:14:02.231Z,32.45
2022-07-25T06:16:28.967Z,31.98
2022-07-25T06:18:55.662Z,31.43
2022-07-25T06:21:22.324Z,31.93
2022-07-25T06:23:49.011Z,32.37
2022-07-25T06:26:15.676Z,32.55
2022-07-25T06:28:42.388Z,32.89
2022-07-25T06:31:09.053Z,32.78
2022-07-25T06:33:35.826Z,33.14
2022-07-25T06:36:02.459Z,33.49
2022-07-25T06:38:29.108Z,33.13
2022-07-25T06:40:55.851Z,32.95
2022-07-25T06:43:22.485Z,32.81
2022-07-25T06:45:50.026Z,33.23
2022-07-25T06:51:33.116Z,33.76
2022-07-25T06:54:00.644Z,33.83
2022-07-25T06:56:31.491Z,33.46
2022-07-25T06:58:58.837Z,33.18
2022-07-25T07:01:25.543Z,33.67
2022-07-25T07:03:52.407Z,34.05
2022-07-25T07:06:19.313Z,34.05
2022-07-25T07:08:45.979Z,34.12
2022-07-25T07:11:15.419Z,34.28
2022-07-25T07:13:42.015Z,34.20
2022-07-25T07:16:08.988Z,34.38
2022-07-25T07:18:35.774Z,34.62
2022-07-25T07:21:02.859Z,33.87
2022-07-25T07:23:29.546Z,33.74
2022-07-25T07:25:57.455Z,33.99
2022-07-25T07:28:24.146Z,34.25
2022-07-25T07:33:38.165Z,34.62
2022-07-25T07:36:04.971Z,35.28
2022-07-25T07:38:31.573Z,35.64
2022-07-25T07:40:58.165Z,35.79
2022-07-25T07:43:29.682Z,35.12
2022-07-25T07:45:59.475Z,34.60
2022-07-25T07:48:30.929Z,34.85
2022-07-25T07:50:58.077Z,35.38
2022-07-25T07:53:44.745Z,35.54
2022-07-25T07:56:12.385Z,34.85
2022-07-25T07:58:39.262Z,34.57
2022-07-25T08:01:06.679Z,34.53
2022-07-25T08:03:33.568Z,34.01
2022-07-25T08:06:00.244Z,34.07
2022-07-25T08:08:31.110Z,33.77
2022-07-25T08:10:59.099Z,33.94
2022-07-25T08:13:28.914Z,33.89
2022-07-25T08:15:59.540Z,34.32
2022-07-25T08:18:27.518Z,34.28
2022-07-25T08:20:54.690Z,34.40
2022-07-25T08:23:22.425Z,34.56
2022-07-25T08:25:49.547Z,34.99
2022-07-25T08:28:16.158Z,34.70
2022-07-25T08:30:43.490Z,35.14
2022-07-25T08:33:13.688Z,35.12
2022-07-25T08:35:41.966Z,35.33
2022-07-25T08:38:11.670Z,35.68
2022-07-25T08:40:38.555Z,35.58
2022-07-25T08:43:05.958Z,35.62
2022-07-25T08:45:33.407Z,35.65
2022-07-25T08:48:00.096Z,35.54
2022-07-25T08:52:37.280Z,35.46
2022-07-25T08:55:09.669Z,35.18
2022-07-25T08:57:38.302Z,35.52
2022-07-25T09:00:06.815Z,35.57
2022-07-25T09:02:33.768Z,34.66
2022-07-25T09:05:00.399Z,34.63
2022-07-25T09:07:38.143Z,35.08
2022-07-25T09:10:20.305Z,35.55
2022-07-25T09:12:58.503Z,35.36
2022-07-25T09:15:36.096Z,35.26
2022-07-25T09:18:10.733Z,35.46
2022-07-25T09:20:43.604Z,35.02
2022-07-25T09:23:15.942Z,35.01
2022-07-25T09:25:43.122Z,35.03
2022-07-25T09:28:12.252Z,34.87
2022-07-25T09:30:40.046Z,34.42
2022-07-25T09:33:06.791Z,33.88
2022-07-25T09:35:40.577Z,34.49
2022-07-25T09:38:15.344Z,34.06
2022-07-25T09:40:53.514Z,34.26
2022-07-25T09:43:20.252Z,33.89
2022-07-25T09:45:52.962Z,33.71
2022-07-25T09:48:21.103Z,33.40
2022-07-25T09:50:47.810Z,33.29
2022-07-25T09:53:14.424Z,32.90
2022-07-25T09:55:41.499Z,33.33
2022-07-25T09:58:08.059Z,33.28
2022-07-25T10:00:34.914Z,33.28
2022-07-25T10:03:40.515Z,33.09
2022-07-25T10:06:36.063Z,32.41
2022-07-25T10:09:02.914Z,32.51
2022-07-25T10:11:30.458Z,32.34
2022-07-25T10:13:57.247Z,31.48
2022-07-25T10:16:26.051Z,31.25
2022-07-25T10:18:58.674Z,30.55
2022-07-25T10:21:28.259Z,30.61
2022-07-25T10:24:00.403Z,30.42
2022-07-25T10:26:27.152Z,30.08
2022-07-25T10:28:56.374Z,29.78
2022-07-25T10:31:31.939Z,29.47
2022-07-25T10:34:01.842Z,29.49
2022-07-25T10:36:42.325Z,29.28
2022-07-25T10:39:11.826Z,29.28
2022-07-25T10:41:43.806Z,29.34
2022-07-25T10:44:15.765Z,29.29
2022-07-25T10:46:47.258Z,28.97
2022-07-25T10:49:31.195Z,29.30
2022-07-25T10:53:48.695Z,29.46
2022-07-25T10:56:21.109Z,29.37
2022-07-25T10:58:59.571Z,29.14
2022-07-25T11:01:32.436Z,29.04
2022-07-25T11:04:14.527Z,28.70
2022-07-25T11:06:43.077Z,28.90
2022-07-25T11:09:28.150Z,28.98
2022-07-25T11:11:57.691Z,28.77
2022-07-25T11:14:28.947Z,28.17
2022-07-25T11:16:56.310Z,28.43
2022-07-25T11:19:28.539Z,28.38
2022-07-25T11:21:59.794Z,28.45
2022-07-25T11:24:43.923Z,28.43
2022-07-25T11:27:22.332Z,28.46
2022-07-25T11:29:48.960Z,28.52
2022-07-25T11:32:15.809Z,28.49
2022-07-25T11:34:47.003Z,28.43
2022-07-25T11:37:14.762Z,28.22
2022-07-25T11:39:44.016Z,28.10
2022-07-25T11:42:11.947Z,28.11
2022-07-25T11:44:47.641Z,28.09
2022-07-25T11:47:33.639Z,27.89
2022-07-25T11:50:04.148Z,27.91
2022-07-25T11:52:36.283Z,27.90
2022-07-25T11:55:16.687Z,27.61
2022-07-25T11:57:47.215Z,27.70
2022-07-25T12:00:18.774Z,27.65
2022-07-25T12:02:46.374Z,27.69
2022-07-25T12:05:15.684Z,27.72
2022-07-25T12:07:46.655Z,27.60
2022-07-25T12:10:24.418Z,27.55
2022-07-25T12:12:56.681Z,27.53
2022-07-25T12:15:27.584Z,27.49
2022-07-25T12:17:55.947Z,27.47
2022-07-25T12:20:34.195Z,27.37
2022-07-25T12:23:07.106Z,27.35
2022-07-25T12:25:35.734Z,27.25
2022-07-25T12:28:02.364Z,27.20
2022-07-25T12:30:30.335Z,27.13
2022-07-25T12:32:58.454Z,27.15
2022-07-25T12:35:25.729Z,27.18
2022-07-25T12:37:54.436Z,27.18
2022-07-25T12:40:21.516Z,27.26
2022-07-25T12:42:48.438Z,27.29
2022-07-25T12:45:17.280Z,27.34
2022-07-25T12:47:45.325Z,27.32
2022-07-25T12:50:13.778Z,27.33
2022-07-25T12:54:39.429Z,27.37
2022-07-25T12:57:06.097Z,27.37
2022-07-25T12:59:32.995Z,27.36
2022-07-25T13:01:59.794Z,27.30
2022-07-25T13:04:26.663Z,27.18
2022-07-25T13:06:55.329Z,27.22
2022-07-25T13:09:22.512Z,27.13
2022-07-25T13:11:49.427Z,27.10
2022-07-25T13:14:18.916Z,27.08
2022-07-25T13:16:47.314Z,27.09
2022-07-25T13:19:15.265Z,27.12
2022-07-25T13:21:43.072Z,27.11
2022-07-25T13:24:11.225Z,27.08
2022-07-25T13:26:38.682Z,27.03
2022-07-25T13:29:09.562Z,27.03
2022-07-25T13:31:36.710Z,27.03
2022-07-25T13:34:03.527Z,27.03
2022-07-25T13:36:30.234Z,26.96
2022-07-25T13:38:56.822Z,27.01
2022-07-25T13:41:23.505Z,26.98
2022-07-25T13:43:50.193Z,26.92
2022-07-25T13:46:17.338Z,26.85
2022-07-25T13:48:44.554Z,26.84
2022-07-25T13:51:11.443Z,26.89
2022-07-25T13:53:38.174Z,26.92
2022-07-25T13:56:05.149Z,26.90
2022-07-25T13:58:32.047Z,26.92
2022-07-25T14:00:58.815Z,26.90
2022-07-25T14:03:25.612Z,26.94
2022-07-25T14:05:52.390Z,26.90
2022-07-25T14:08:19.053Z,26.82
2022-07-25T14:10:45.742Z,26.82
2022-07-25T14:13:13.228Z,26.78
2022-07-25T14:15:39.825Z,26.78
2022-07-25T14:18:06.447Z,26.77
2022-07-25T14:20:33.248Z,26.81
2022-07-25T14:22:59.962Z,26.81
2022-07-25T14:25:26.585Z,26.84
2022-07-25T14:27:53.275Z,26.88
2022-07-25T14:30:19.952Z,26.84
2022-07-25T14:32:47.241Z,26.79
2022-07-25T14:35:14.148Z,26.82
2022-07-25T14:37:41.002Z,26.85
2022-07-25T14:40:08.100Z,26.83
2022-07-25T14:42:34.683Z,26.75
2022-07-25T14:45:01.256Z,26.72
2022-07-25T14:47:27.922Z,26.74
2022-07-25T14:49:54.520Z,26.72
2022-07-25T14:55:37.586Z,26.60
2022-07-25T14:58:04.366Z,26.55
2022-07-25T15:00:31.180Z,26.52
2022-07-25T15:02:57.859Z,26.57
2022-07-25T15:05:24.480Z,26.56
2022-07-25T15:07:51.676Z,26.50
2022-07-25T15:10:18.510Z,26.49
2022-07-25T15:12:45.097Z,26.46
2022-07-25T15:15:12.064Z,26.45
2022-07-25T15:17:39.050Z,26.45
2022-07-25T15:20:06.308Z,26.43
2022-07-25T15:22:32.955Z,26.40
2022-07-25T15:27:46.311Z,26.36
2022-07-25T15:30:13.256Z,26.35
2022-07-25T15:32:40.349Z,26.33
2022-07-25T15:35:07.736Z,26.32
2022-07-25T15:37:34.475Z,26.29
2022-07-25T15:40:01.270Z,26.26
2022-07-25T15:42:29.556Z,26.22
2022-07-25T15:45:29.816Z,26.19
2022-07-25T15:47:46.231Z,26.16
2022-07-25T15:50:18.055Z,26.13
2022-07-25T15:52:44.695Z,26.10
2022-07-25T15:55:11.404Z,26.06
2022-07-25T15:57:38.017Z,26.02
2022-07-25T16:00:06.644Z,26.00
2022-07-25T16:02:33.220Z,25.96
2022-07-25T16:04:59.843Z,25.96
2022-07-25T16:07:26.432Z,25.94
2022-07-25T16:09:55.389Z,25.97
2022-07-25T16:12:28.372Z,25.99
2022-07-25T16:14:55.353Z,26.02
2022-07-25T16:17:22.416Z,26.02
2022-07-25T16:19:49.091Z,26.08
2022-07-25T16:22:15.720Z,26.07
2022-07-25T16:24:42.570Z,26.05
2022-07-25T16:27:10.074Z,26.07
2022-07-25T16:29:37.465Z,26.03
2022-07-25T16:32:05.539Z,26.05
2022-07-25T16:34:32.880Z,26.07
2022-07-25T16:37:00.690Z,25.98
2022-07-25T16:39:27.505Z,25.90
2022-07-25T16:41:55.009Z,25.88
2022-07-25T16:44:23.786Z,25.87
2022-07-25T16:46:51.112Z,25.82
2022-07-25T16:49:17.956Z,25.81
2022-07-25T16:51:45.332Z,25.81
2022-07-25T16:56:40.867Z,25.71
2022-07-25T16:59:08.488Z,25.67
2022-07-25T17:01:35.899Z,25.60
2022-07-25T17:04:02.792Z,25.55
2022-07-25T17:06:29.759Z,25.51
2022-07-25T17:08:56.496Z,25.45
2022-07-25T17:11:23.124Z,25.38
2022-07-25T17:13:49.830Z,25.32
2022-07-25T17:16:16.720Z,25.27
2022-07-25T17:18:43.378Z,25.20
2022-07-25T17:21:10.710Z,25.14
2022-07-25T17:23:37.383Z,25.12
2022-07-25T17:26:05.509Z,25.05
2022-07-25T17:28:32.431Z,25.00
2022-07-25T17:30:59.334Z,24.93
2022-07-25T17:33:26.033Z,24.87
2022-07-25T17:35:52.897Z,24.84
2022-07-25T17:38:23.897Z,24.72
2022-07-25T17:40:52.995Z,24.67
2022-07-25T17:43:19.813Z,24.58
2022-07-25T17:45:46.651Z,24.50
2022-07-25T17:48:13.219Z,24.39
2022-07-25T17:50:39.793Z,24.26
2022-07-25T17:53:06.405Z,24.18
2022-07-25T17:55:36.841Z,24.08
2022-07-25T17:58:05.301Z,23.96
2022-07-25T18:00:32.505Z,23.88
2022-07-25T18:02:59.333Z,23.76
2022-07-25T18:05:26.283Z,23.64
2022-07-25T18:07:53.806Z,23.56
2022-07-25T18:10:23.868Z,23.44
2022-07-25T18:12:50.780Z,23.35
2022-07-25T18:15:18.005Z,23.27
2022-07-25T18:17:46.156Z,23.17
2022-07-25T18:20:15.143Z,23.06
2022-07-25T18:22:42.019Z,22.98
2022-07-25T18:25:11.361Z,22.85
2022-07-25T18:27:47.782Z,22.74
2022-07-25T18:30:15.984Z,22.66
2022-07-25T18:32:42.930Z,22.62
2022-07-25T18:35:11.103Z,22.50
2022-07-25T18:37:38.199Z,22.44
2022-07-25T18:40:06.986Z,22.37
2022-07-25T18:42:34.485Z,22.27
2022-07-25T18:45:01.661Z,22.19
2022-07-25T18:47:32.214Z,22.05
2022-07-25T18:49:59.698Z,21.99
2022-07-25T18:52:26.698Z,21.91
2022-07-25T18:57:39.298Z,21.73
2022-07-25T19:00:08.037Z,21.65
2022-07-25T19:02:34.972Z,21.56
2022-07-25T19:05:02.394Z,21.48
2022-07-25T19:07:31.303Z,21.37
2022-07-25T19:09:58.305Z,21.28
2022-07-25T19:12:26.648Z,21.21
2022-07-25T19:14:54.496Z,21.08
2022-07-25T19:17:21.571Z,20.95
2022-07-25T19:19:48.095Z,20.88
2022-07-25T19:22:14.645Z,20.76
2022-07-25T19:24:41.369Z,20.67
2022-07-25T19:27:09.292Z,20.59
2022-07-25T19:29:37.292Z,20.51
2022-07-25T19:32:04.495Z,20.40
2022-07-25T19:34:31.163Z,20.30
2022-07-25T19:36:57.868Z,20.19
2022-07-25T19:39:24.986Z,20.19
2022-07-25T19:41:52.415Z,20.09
2022-07-25T19:44:19.236Z,20.02
2022-07-25T19:46:46.589Z,19.93
2022-07-25T19:49:13.453Z,19.87
2022-07-25T19:51:40.202Z,19.76
2022-07-25T19:54:11.066Z,19.75
2022-07-25T19:56:38.092Z,19.71
2022-07-25T19:59:04.789Z,19.68
2022-07-25T20:01:35.758Z,19.66
2022-07-25T20:04:05.893Z,19.61
2022-07-25T20:06:32.880Z,19.53
2022-07-25T20:09:00.862Z,19.52
2022-07-25T20:11:27.630Z,19.44
2022-07-25T20:13:57.895Z,19.42
2022-07-25T20:16:24.630Z,19.39
2022-07-25T20:18:51.332Z,19.32
2022-07-25T20:21:18.156Z,19.32
2022-07-25T20:23:45.507Z,19.26
2022-07-25T20:26:12.937Z,19.22
2022-07-25T20:28:39.651Z,19.22
2022-07-25T20:31:06.797Z,19.17
2022-07-25T20:33:33.597Z,19.16
2022-07-25T20:36:00.688Z,19.11
2022-07-25T20:38:31.270Z,19.16
2022-07-25T20:40:59.363Z,19.09
2022-07-25T20:43:27.409Z,19.09
2022-07-25T20:45:54.499Z,19.03
2022-07-25T20:48:21.237Z,19.02
2022-07-25T20:50:48.103Z,18.94
2022-07-25T20:53:14.685Z,18.98
2022-07-25T20:58:37.386Z,18.98
2022-07-25T21:01:07.140Z,18.90
2022-07-25T21:03:36.605Z,18.89
2022-07-25T21:06:03.746Z,18.84
2022-07-25T21:08:30.392Z,18.78
2022-07-25T21:10:59.749Z,18.75
2022-07-25T21:13:26.442Z,18.71
2022-07-25T21:15:59.679Z,18.75
2022-07-25T21:18:28.953Z,18.70
2022-07-25T21:20:55.756Z,18.63
2022-07-25T21:23:22.725Z,18.54
2022-07-25T21:25:52.366Z,18.53
2022-07-25T21:28:19.413Z,18.49
2022-07-25T21:30:46.135Z,18.47
2022-07-25T21:33:14.818Z,18.45
2022-07-25T21:35:49.260Z,18.42
2022-07-25T21:38:27.291Z,18.43
2022-07-25T21:40:54.891Z,18.42
2022-07-25T21:43:21.570Z,18.40
2022-07-25T21:45:48.439Z,18.36
2022-07-25T21:48:15.451Z,18.31
2022-07-25T21:50:47.921Z,18.31
2022-07-25T21:53:16.209Z,18.28
2022-07-25T21:55:46.033Z,18.30
2022-07-25T21:58:13.368Z,18.31
2022-07-25T22:00:45.402Z,18.29
2022-07-25T22:03:15.680Z,18.29
2022-07-25T22:05:42.830Z,18.24
2022-07-25T22:08:14.902Z,18.18
2022-07-25T22:10:44.420Z,18.16
2022-07-25T22:13:12.917Z,18.15
2022-07-25T22:15:41.308Z,18.12
2022-07-25T22:18:08.840Z,18.05
2022-07-25T22:20:35.638Z,18.02
2022-07-25T22:23:05.061Z,18.04
2022-07-25T22:25:32.081Z,18.10
2022-07-25T22:27:58.822Z,18.13
2022-07-25T22:30:28.763Z,18.30
2022-07-25T22:32:55.689Z,18.41
2022-07-25T22:35:28.190Z,18.44
2022-07-25T22:37:55.011Z,18.47
2022-07-25T22:40:23.642Z,18.50
2022-07-25T22:42:52.777Z,18.51
2022-07-25T22:45:20.370Z,18.43
2022-07-25T22:47:50.151Z,18.48
2022-07-25T22:50:22.715Z,18.39
2022-07-25T22:52:49.908Z,18.35
2022-07-25T22:55:19.626Z,18.29
2022-07-25T22:59:31.822Z,18.13
2022-07-25T23:01:58.450Z,18.07
2022-07-25T23:04:25.112Z,18.01
2022-07-25T23:06:51.816Z,17.96
2022-07-25T23:09:18.679Z,17.96
2022-07-25T23:11:45.404Z,17.88
2022-07-25T23:14:13.532Z,17.95
2022-07-25T23:16:40.249Z,17.97
2022-07-25T23:19:07.154Z,18.07
2022-07-25T23:21:34.259Z,18.09
2022-07-25T23:24:01.252Z,18.10
2022-07-25T23:26:28.186Z,18.08
2022-07-25T23:28:54.804Z,18.07
2022-07-25T23:31:21.530Z,17.99
2022-07-25T23:33:48.204Z,17.92
2022-07-25T23:36:14.944Z,17.82
2022-07-25T23:38:41.617Z,17.74
2022-07-25T23:41:08.900Z,17.71
2022-07-25T23:43:55.971Z,17.66
2022-07-25T23:46:27.894Z,17.63
2022-07-25T23:48:57.604Z,17.66
2022-07-25T23:51:24.950Z,17.66
2022-07-25T23:53:51.796Z,17.67
2022-07-25T23:56:21.073Z,17.72
2022-07-25T23:58:50.149Z,17.70
